createdAt,value
2022-11-17T09:29:15.543Z,12.73
2022-11-17T09:35:09.589Z,8.39
2022-11-17T09:41:22.383Z,6.90
2022-11-17T09:48:02.373Z,6.48
2022-11-17T09:54:26.723Z,6.07
2022-11-17T10:00:21.161Z,5.99
2022-11-17T10:06:33.846Z,5.61
2022-11-17T10:12:31.373Z,5.57
2022-11-17T10:18:24.403Z,5.38
2022-11-17T10:24:38.348Z,5.26
2022-11-17T10:30:31.222Z,5.15
2022-11-17T10:36:29.980Z,5.28
2022-11-17T10:42:28.020Z,5.32
2022-11-17T10:48:30.624Z,5.47
2022-11-17T10:54:23.642Z,5.43
2022-11-17T11:00:37.601Z,5.72
2022-11-17T11:06:32.685Z,5.86
2022-11-17T11:13:01.390Z,5.40
2022-11-17T11:18:53.954Z,5.17
2022-11-17T11:24:53.942Z,5.14
2022-11-17T11:30:59.581Z,5.00
2022-11-17T11:37:14.243Z,4.90
2022-11-17T11:43:27.589Z,5.04
2022-11-17T11:49:31.584Z,4.97
2022-11-17T11:55:35.129Z,5.01
2022-11-17T12:01:32.649Z,5.05
2022-11-17T12:07:47.824Z,5.15
2022-11-17T12:13:47.286Z,5.16
2022-11-17T12:19:48.696Z,4.95
2022-11-17T12:25:54.117Z,4.81
2022-11-17T12:31:51.111Z,5.05
2022-11-17T12:37:43.642Z,5.10
2022-11-17T12:43:36.723Z,5.15
2022-11-17T12:49:46.311Z,5.17
2022-11-17T12:55:47.520Z,5.06
2022-11-17T13:01:53.446Z,5.06
2022-11-17T13:07:45.725Z,4.81
2022-11-17T13:13:43.965Z,4.91
2022-11-17T13:19:41.847Z,4.75
2022-11-17T13:25:35.203Z,4.68
2022-11-17T13:31:27.800Z,4.69
2022-11-17T13:37:26.681Z,4.67
2022-11-17T13:43:21.890Z,4.55
2022-11-17T13:49:50.379Z,4.47
2022-11-17T13:55:49.261Z,4.46
2022-11-17T14:01:41.781Z,4.46
2022-11-17T14:07:37.079Z,4.38
2022-11-17T14:13:32.450Z,4.33
2022-11-17T14:19:30.263Z,4.20
2022-11-17T14:25:23.903Z,4.16
2022-11-17T14:31:18.276Z,4.23
2022-11-17T14:37:13.265Z,4.22
2022-11-17T14:43:06.811Z,4.29
2022-11-17T14:48:58.740Z,4.25
2022-11-17T14:54:51.043Z,4.22
2022-11-17T15:00:44.106Z,4.18
2022-11-17T15:06:38.148Z,4.15
2022-11-17T15:12:30.935Z,4.15
2022-11-17T15:18:23.182Z,4.08
2022-11-17T15:24:16.258Z,4.03
2022-11-17T15:30:09.667Z,4.03
2022-11-17T15:36:05.893Z,4.05
2022-11-17T15:41:58.300Z,4.02
2022-11-17T15:47:51.861Z,4.04
2022-11-17T15:53:45.443Z,3.86
2022-11-17T15:59:37.768Z,3.82
2022-11-17T16:05:30.385Z,3.77
2022-11-17T16:11:23.651Z,3.74
2022-11-17T16:17:15.791Z,3.58
2022-11-17T16:23:08.064Z,3.63
2022-11-17T16:29:02.622Z,3.53
2022-11-17T16:34:55.407Z,3.51
2022-11-17T16:40:48.991Z,3.61
2022-11-17T16:46:43.651Z,3.44
2022-11-17T16:52:36.182Z,3.55
2022-11-17T16:58:28.113Z,3.42
2022-11-17T17:04:20.365Z,3.47
2022-11-17T17:10:13.301Z,3.44
2022-11-17T17:16:08.812Z,3.44
2022-11-17T17:22:01.836Z,3.36
2022-11-17T17:27:54.064Z,3.46
2022-11-17T17:33:46.584Z,3.41
2022-11-17T17:39:39.221Z,3.47
2022-11-17T17:45:31.362Z,3.43
2022-11-17T17:51:25.284Z,3.40
2022-11-17T17:57:17.456Z,3.39
2022-11-17T18:03:10.378Z,3.39
2022-11-17T18:09:02.423Z,3.39
2022-11-17T18:14:54.832Z,3.40
2022-11-17T18:20:47.432Z,3.32
2022-11-17T18:26:41.246Z,3.34
2022-11-17T18:32:34.670Z,3.32
2022-11-17T18:38:27.112Z,3.30
2022-11-17T18:44:19.905Z,3.27
2022-11-17T18:50:12.375Z,3.29
2022-11-17T18:56:10.821Z,3.28
2022-11-17T19:02:03.463Z,3.28
2022-11-17T19:07:57.532Z,3.32
2022-11-17T19:13:50.403Z,3.24
2022-11-17T19:19:42.512Z,3.27
2022-11-17T19:25:42.082Z,3.30
2022-11-17T19:31:34.946Z,3.29
2022-11-17T19:37:27.492Z,3.32
2022-11-17T19:43:19.742Z,3.28
2022-11-17T19:49:13.072Z,3.34
2022-11-17T19:55:06.484Z,3.37
2022-11-17T20:00:59.478Z,3.30
2022-11-17T20:06:52.307Z,3.27
2022-11-17T20:12:44.872Z,3.22
2022-11-17T20:18:37.771Z,3.23
2022-11-17T20:24:30.750Z,3.23
2022-11-17T20:30:22.943Z,3.20
2022-11-17T20:36:19.791Z,3.17
2022-11-17T20:42:14.533Z,3.18
2022-11-17T20:48:07.251Z,3.07
2022-11-17T20:54:00.422Z,3.13
2022-11-17T20:59:53.284Z,3.12
2022-11-17T21:05:59.163Z,3.18
2022-11-17T21:11:57.798Z,3.25
2022-11-17T21:18:08.631Z,3.19
2022-11-17T21:24:00.590Z,3.19
2022-11-17T21:29:53.099Z,3.21
2022-11-17T21:35:46.182Z,3.18
2022-11-17T21:41:39.232Z,3.23
2022-11-17T21:47:31.719Z,3.11
2022-11-17T21:53:25.144Z,3.18
2022-11-17T21:59:17.936Z,3.16
2022-11-17T22:05:11.272Z,3.13
2022-11-17T22:11:06.958Z,3.09
2022-11-17T22:16:58.874Z,3.04
2022-11-17T22:22:54.334Z,2.94
2022-11-17T22:28:54.360Z,2.96
2022-11-17T22:34:47.011Z,3.00
2022-11-17T22:40:42.572Z,2.94
2022-11-17T22:46:36.244Z,2.92
2022-11-17T22:52:28.739Z,2.94
2022-11-17T22:58:21.532Z,2.87
2022-11-17T23:04:15.118Z,2.91
2022-11-17T23:10:07.317Z,2.97
2022-11-17T23:16:04.591Z,2.94
2022-11-17T23:21:56.791Z,2.96
2022-11-17T23:27:49.363Z,2.98
2022-11-17T23:33:45.061Z,2.93
2022-11-17T23:39:37.329Z,2.92
2022-11-17T23:45:30.272Z,2.88
2022-11-17T23:51:25.530Z,2.73
2022-11-17T23:57:18.551Z,2.71
